sensor_id;sensor_type;location;lat;lon;timestamp;temperature;humidity
21169;DHT22;10742;51.816;8.662;2023-03-23T00:01:23;16.90;84.50
21169;DHT22;10742;51.816;8.662;2023-03-23T00:04:27;16.90;84.60
21169;DHT22;10742;51.816;8.662;2023-03-23T00:07:30;16.90;84.70
21169;DHT22;10742;51.816;8.662;2023-03-23T00:10:31;16.90;84.70
21169;DHT22;10742;51.816;8.662;2023-03-23T00:13:34;16.90;84.70
21169;DHT22;10742;51.816;8.662;2023-03-23T00:16:35;16.90;84.80
21169;DHT22;10742;51.816;8.662;2023-03-23T00:19:38;16.90;84.90
21169;DHT22;10742;51.816;8.662;2023-03-23T00:22:46;16.90;85.00
21169;DHT22;10742;51.816;8.662;2023-03-23T00:25:49;16.80;85.00
21169;DHT22;10742;51.816;8.662;2023-03-23T00:28:50;16.80;85.20
21169;DHT22;10742;51.816;8.662;2023-03-23T00:31:52;16.80;85.10
21169;DHT22;10742;51.816;8.662;2023-03-23T00:34:54;16.80;85.10
21169;DHT22;10742;51.816;8.662;2023-03-23T00:37:57;16.80;85.40
21169;DHT22;10742;51.816;8.662;2023-03-23T00:41:01;16.70;85.40
21169;DHT22;10742;51.816;8.662;2023-03-23T00:44:06;16.80;85.60
21169;DHT22;10742;51.816;8.662;2023-03-23T00:47:10;16.70;85.60
21169;DHT22;10742;51.816;8.662;2023-03-23T00:50:13;16.70;85.70
21169;DHT22;10742;51.816;8.662;2023-03-23T00:53:15;16.70;85.60
21169;DHT22;10742;51.816;8.662;2023-03-23T00:56:17;16.70;85.70
21169;DHT22;10742;51.816;8.662;2023-03-23T00:59:19;16.70;85.70
21169;DHT22;10742;51.816;8.662;2023-03-23T01:02:20;16.70;85.90
21169;DHT22;10742;51.816;8.662;2023-03-23T01:05:25;16.70;85.90
21169;DHT22;10742;51.816;8.662;2023-03-23T01:08:32;16.70;85.90
21169;DHT22;10742;51.816;8.662;2023-03-23T01:11:34;16.70;86.00
21169;DHT22;10742;51.816;8.662;2023-03-23T01:14:35;16.70;86.00
21169;DHT22;10742;51.816;8.662;2023-03-23T01:17:36;16.70;86.10
21169;DHT22;10742;51.816;8.662;2023-03-23T01:20:37;16.70;86.10
21169;DHT22;10742;51.816;8.662;2023-03-23T01:23:38;16.70;86.20
21169;DHT22;10742;51.816;8.662;2023-03-23T01:26:40;16.70;86.40
21169;DHT22;10742;51.816;8.662;2023-03-23T01:29:41;16.70;86.50
21169;DHT22;10742;51.816;8.662;2023-03-23T01:32:43;16.60;86.60
21169;DHT22;10742;51.816;8.662;2023-03-23T01:35:44;16.70;86.80
21169;DHT22;10742;51.816;8.662;2023-03-23T01:38:47;16.60;86.90
21169;DHT22;10742;51.816;8.662;2023-03-23T01:41:48;16.60;87.20
21169;DHT22;10742;51.816;8.662;2023-03-23T01:51:14;16.60;87.80
21169;DHT22;10742;51.816;8.662;2023-03-23T01:54:18;16.60;87.90
21169;DHT22;10742;51.816;8.662;2023-03-23T01:57:24;16.60;87.80
21169;DHT22;10742;51.816;8.662;2023-03-23T02:00:30;16.60;88.00
21169;DHT22;10742;51.816;8.662;2023-03-23T02:03:32;16.60;88.00
21169;DHT22;10742;51.816;8.662;2023-03-23T02:06:35;16.60;88.10
21169;DHT22;10742;51.816;8.662;2023-03-23T02:09:51;16.60;88.30
21169;DHT22;10742;51.816;8.662;2023-03-23T02:12:53;16.60;88.50
21169;DHT22;10742;51.816;8.662;2023-03-23T02:19:23;16.50;89.00
21169;DHT22;10742;51.816;8.662;2023-03-23T02:26:33;16.50;89.50
21169;DHT22;10742;51.816;8.662;2023-03-23T02:29:53;16.50;89.60
21169;DHT22;10742;51.816;8.662;2023-03-23T02:36:15;16.50;89.80
21169;DHT22;10742;51.816;8.662;2023-03-23T02:39:30;16.50;89.20
21169;DHT22;10742;51.816;8.662;2023-03-23T02:42:36;16.50;89.80
21169;DHT22;10742;51.816;8.662;2023-03-23T02:45:38;16.50;89.80
21169;DHT22;10742;51.816;8.662;2023-03-23T02:48:44;16.50;89.90
21169;DHT22;10742;51.816;8.662;2023-03-23T02:51:46;16.40;90.00
21169;DHT22;10742;51.816;8.662;2023-03-23T02:54:51;16.40;90.00
21169;DHT22;10742;51.816;8.662;2023-03-23T02:57:53;16.40;90.10
21169;DHT22;10742;51.816;8.662;2023-03-23T03:00:54;16.40;90.10
21169;DHT22;10742;51.816;8.662;2023-03-23T03:03:58;16.40;90.20
21169;DHT22;10742;51.816;8.662;2023-03-23T03:07:32;16.30;90.30
21169;DHT22;10742;51.816;8.662;2023-03-23T03:10:48;16.30;90.70
21169;DHT22;10742;51.816;8.662;2023-03-23T03:13:58;16.30;90.50
21169;DHT22;10742;51.816;8.662;2023-03-23T03:17:14;16.30;90.60
21169;DHT22;10742;51.816;8.662;2023-03-23T03:20:20;16.20;90.80
21169;DHT22;10742;51.816;8.662;2023-03-23T03:23:25;16.20;90.50
21169;DHT22;10742;51.816;8.662;2023-03-23T03:26:31;16.20;90.70
21169;DHT22;10742;51.816;8.662;2023-03-23T03:29:53;16.20;90.80
21169;DHT22;10742;51.816;8.662;2023-03-23T03:32:56;16.10;90.80
21169;DHT22;10742;51.816;8.662;2023-03-23T03:36:00;16.10;90.80
21169;DHT22;10742;51.816;8.662;2023-03-23T03:39:04;16.10;90.80
21169;DHT22;10742;51.816;8.662;2023-03-23T03:42:08;16.10;90.90
21169;DHT22;10742;51.816;8.662;2023-03-23T03:45:12;16.00;90.90
21169;DHT22;10742;51.816;8.662;2023-03-23T03:48:14;16.00;91.10
21169;DHT22;10742;51.816;8.662;2023-03-23T03:51:16;16.00;90.90
21169;DHT22;10742;51.816;8.662;2023-03-23T03:54:21;16.00;90.90
21169;DHT22;10742;51.816;8.662;2023-03-23T03:57:23;16.00;91.00
21169;DHT22;10742;51.816;8.662;2023-03-23T04:00:40;16.00;91.10
21169;DHT22;10742;51.816;8.662;2023-03-23T04:03:42;16.00;91.10
21169;DHT22;10742;51.816;8.662;2023-03-23T04:06:56;16.00;91.10
21169;DHT22;10742;51.816;8.662;2023-03-23T04:09:58;16.00;91.10
21169;DHT22;10742;51.816;8.662;2023-03-23T04:12:59;15.90;91.10
21169;DHT22;10742;51.816;8.662;2023-03-23T04:16:20;15.90;91.10
21169;DHT22;10742;51.816;8.662;2023-03-23T04:19:23;15.90;91.00
21169;DHT22;10742;51.816;8.662;2023-03-23T04:22:26;15.90;91.10
21169;DHT22;10742;51.816;8.662;2023-03-23T04:25:31;15.90;91.20
21169;DHT22;10742;51.816;8.662;2023-03-23T04:28:34;15.90;91.10
21169;DHT22;10742;51.816;8.662;2023-03-23T04:31:54;15.90;91.20
21169;DHT22;10742;51.816;8.662;2023-03-23T04:35:14;15.90;91.10
21169;DHT22;10742;51.816;8.662;2023-03-23T04:38:23;15.90;91.20
21169;DHT22;10742;51.816;8.662;2023-03-23T04:41:30;15.80;91.20
21169;DHT22;10742;51.816;8.662;2023-03-23T04:44:47;15.80;91.30
21169;DHT22;10742;51.816;8.662;2023-03-23T04:48:04;15.80;91.30
21169;DHT22;10742;51.816;8.662;2023-03-23T04:51:17;15.80;91.30
21169;DHT22;10742;51.816;8.662;2023-03-23T04:54:21;15.80;91.30
21169;DHT22;10742;51.816;8.662;2023-03-23T04:57:26;15.80;91.30
21169;DHT22;10742;51.816;8.662;2023-03-23T05:00:47;15.70;91.30
21169;DHT22;10742;51.816;8.662;2023-03-23T05:03:53;15.80;91.40
21169;DHT22;10742;51.816;8.662;2023-03-23T05:06:56;15.80;91.40
21169;DHT22;10742;51.816;8.662;2023-03-23T05:10:01;15.70;91.30
21169;DHT22;10742;51.816;8.662;2023-03-23T05:13:05;15.80;91.30
21169;DHT22;10742;51.816;8.662;2023-03-23T05:16:07;15.70;91.30
21169;DHT22;10742;51.816;8.662;2023-03-23T05:19:10;15.70;91.40
21169;DHT22;10742;51.816;8.662;2023-03-23T05:22:12;15.70;91.30
21169;DHT22;10742;51.816;8.662;2023-03-23T05:25:21;15.80;91.40
21169;DHT22;10742;51.816;8.662;2023-03-23T05:28:32;15.70;91.30
21169;DHT22;10742;51.816;8.662;2023-03-23T05:31:44;15.80;91.30
21169;DHT22;10742;51.816;8.662;2023-03-23T05:34:45;15.80;91.20
21169;DHT22;10742;51.816;8.662;2023-03-23T05:37:47;15.80;91.20
21169;DHT22;10742;51.816;8.662;2023-03-23T05:40:49;15.80;91.30
21169;DHT22;10742;51.816;8.662;2023-03-23T05:43:53;15.80;91.30
21169;DHT22;10742;51.816;8.662;2023-03-23T05:47:03;15.80;91.30
21169;DHT22;10742;51.816;8.662;2023-03-23T05:50:06;15.80;91.40
21169;DHT22;10742;51.816;8.662;2023-03-23T05:53:09;15.80;91.30
21169;DHT22;10742;51.816;8.662;2023-03-23T05:56:13;15.80;91.40
21169;DHT22;10742;51.816;8.662;2023-03-23T05:59:35;15.80;91.40
21169;DHT22;10742;51.816;8.662;2023-03-23T06:02:38;15.80;91.40
21169;DHT22;10742;51.816;8.662;2023-03-23T06:05:43;15.90;91.50
21169;DHT22;10742;51.816;8.662;2023-03-23T06:08:52;15.90;91.50
21169;DHT22;10742;51.816;8.662;2023-03-23T06:12:02;15.90;91.40
21169;DHT22;10742;51.816;8.662;2023-03-23T06:15:21;15.90;91.40
21169;DHT22;10742;51.816;8.662;2023-03-23T06:18:45;15.90;91.40
21169;DHT22;10742;51.816;8.662;2023-03-23T06:22:07;15.90;91.40
21169;DHT22;10742;51.816;8.662;2023-03-23T06:25:18;16.00;91.50
21169;DHT22;10742;51.816;8.662;2023-03-23T06:28:19;16.00;91.50
21169;DHT22;10742;51.816;8.662;2023-03-23T06:31:24;16.00;91.50
21169;DHT22;10742;51.816;8.662;2023-03-23T06:34:27;16.00;91.80
21169;DHT22;10742;51.816;8.662;2023-03-23T06:38:00;16.10;91.40
21169;DHT22;10742;51.816;8.662;2023-03-23T06:41:22;16.10;91.40
21169;DHT22;10742;51.816;8.662;2023-03-23T06:44:23;16.10;91.40
21169;DHT22;10742;51.816;8.662;2023-03-23T06:47:25;16.10;91.30
21169;DHT22;10742;51.816;8.662;2023-03-23T06:50:27;16.10;91.30
21169;DHT22;10742;51.816;8.662;2023-03-23T06:53:31;16.10;91.40
21169;DHT22;10742;51.816;8.662;2023-03-23T06:56:33;16.10;91.30
21169;DHT22;10742;51.816;8.662;2023-03-23T06:59:35;16.20;91.40
21169;DHT22;10742;51.816;8.662;2023-03-23T07:02:37;16.20;91.40
21169;DHT22;10742;51.816;8.662;2023-03-23T07:05:39;16.20;91.40
21169;DHT22;10742;51.816;8.662;2023-03-23T07:08:42;16.20;91.40
21169;DHT22;10742;51.816;8.662;2023-03-23T07:11:48;16.20;91.40
21169;DHT22;10742;51.816;8.662;2023-03-23T07:15:05;16.30;91.40
21169;DHT22;10742;51.816;8.662;2023-03-23T07:18:06;16.30;91.30
21169;DHT22;10742;51.816;8.662;2023-03-23T07:21:16;16.30;91.30
21169;DHT22;10742;51.816;8.662;2023-03-23T07:24:18;16.40;91.30
21169;DHT22;10742;51.816;8.662;2023-03-23T07:27:45;16.40;91.30
21169;DHT22;10742;51.816;8.662;2023-03-23T07:30:47;16.40;91.20
21169;DHT22;10742;51.816;8.662;2023-03-23T07:33:48;16.40;91.20
21169;DHT22;10742;51.816;8.662;2023-03-23T07:36:51;16.50;91.30
21169;DHT22;10742;51.816;8.662;2023-03-23T07:39:53;16.50;91.30
21169;DHT22;10742;51.816;8.662;2023-03-23T07:42:56;16.50;91.30
21169;DHT22;10742;51.816;8.662;2023-03-23T07:46:24;16.60;91.40
21169;DHT22;10742;51.816;8.662;2023-03-23T07:49:38;16.60;91.30
21169;DHT22;10742;51.816;8.662;2023-03-23T07:52:55;16.70;91.30
21169;DHT22;10742;51.816;8.662;2023-03-23T07:55:58;16.70;91.30
21169;DHT22;10742;51.816;8.662;2023-03-23T07:59:22;16.80;91.20
21169;DHT22;10742;51.816;8.662;2023-03-23T08:02:24;16.90;91.20
21169;DHT22;10742;51.816;8.662;2023-03-23T08:05:46;16.90;91.10
21169;DHT22;10742;51.816;8.662;2023-03-23T08:09:19;16.90;91.00
21169;DHT22;10742;51.816;8.662;2023-03-23T08:12:55;17.00;90.90
21169;DHT22;10742;51.816;8.662;2023-03-23T08:16:15;17.00;90.80
21169;DHT22;10742;51.816;8.662;2023-03-23T08:19:45;17.10;90.80
21169;DHT22;10742;51.816;8.662;2023-03-23T08:23:05;17.10;90.70
21169;DHT22;10742;51.816;8.662;2023-03-23T08:26:38;17.20;90.60
21169;DHT22;10742;51.816;8.662;2023-03-23T08:29:49;17.30;90.60
21169;DHT22;10742;51.816;8.662;2023-03-23T08:33:01;17.40;90.50
21169;DHT22;10742;51.816;8.662;2023-03-23T08:36:22;17.40;90.50
21169;DHT22;10742;51.816;8.662;2023-03-23T08:39:42;17.50;90.30
21169;DHT22;10742;51.816;8.662;2023-03-23T08:42:44;17.50;90.20
21169;DHT22;10742;51.816;8.662;2023-03-23T08:46:06;17.60;90.20
21169;DHT22;10742;51.816;8.662;2023-03-23T08:49:45;17.60;90.00
21169;DHT22;10742;51.816;8.662;2023-03-23T08:53:18;17.70;90.00
21169;DHT22;10742;51.816;8.662;2023-03-23T08:56:21;17.80;89.90
21169;DHT22;10742;51.816;8.662;2023-03-23T08:59:45;17.80;89.80
21169;DHT22;10742;51.816;8.662;2023-03-23T09:02:53;17.90;89.50
21169;DHT22;10742;51.816;8.662;2023-03-23T09:06:01;17.90;89.00
21169;DHT22;10742;51.816;8.662;2023-03-23T09:09:18;17.90;88.60
21169;DHT22;10742;51.816;8.662;2023-03-23T09:12:19;18.00;89.00
21169;DHT22;10742;51.816;8.662;2023-03-23T09:15:21;18.00;88.70
21169;DHT22;10742;51.816;8.662;2023-03-23T09:18:22;18.00;88.60
21169;DHT22;10742;51.816;8.662;2023-03-23T09:21:25;18.00;88.60
21169;DHT22;10742;51.816;8.662;2023-03-23T09:24:27;18.10;88.30
21169;DHT22;10742;51.816;8.662;2023-03-23T09:27:28;18.10;88.10
21169;DHT22;10742;51.816;8.662;2023-03-23T09:30:31;18.20;88.10
21169;DHT22;10742;51.816;8.662;2023-03-23T09:33:33;18.20;87.80
21169;DHT22;10742;51.816;8.662;2023-03-23T09:36:36;18.30;87.70
21169;DHT22;10742;51.816;8.662;2023-03-23T09:39:37;18.30;87.40
21169;DHT22;10742;51.816;8.662;2023-03-23T09:42:51;18.40;87.20
21169;DHT22;10742;51.816;8.662;2023-03-23T09:46:04;18.40;86.50
21169;DHT22;10742;51.816;8.662;2023-03-23T09:49:15;18.40;86.60
21169;DHT22;10742;51.816;8.662;2023-03-23T09:52:18;18.50;86.30
21169;DHT22;10742;51.816;8.662;2023-03-23T09:55:21;18.50;86.30
21169;DHT22;10742;51.816;8.662;2023-03-23T09:58:54;18.50;85.90
21169;DHT22;10742;51.816;8.662;2023-03-23T10:02:54;18.60;85.40
21169;DHT22;10742;51.816;8.662;2023-03-23T10:06:17;18.60;85.10
21169;DHT22;10742;51.816;8.662;2023-03-23T10:09:38;18.60;85.70
21169;DHT22;10742;51.816;8.662;2023-03-23T10:13:22;18.60;85.60
21169;DHT22;10742;51.816;8.662;2023-03-23T10:16:56;18.60;85.30
21169;DHT22;10742;51.816;8.662;2023-03-23T10:24:10;18.70;84.30
21169;DHT22;10742;51.816;8.662;2023-03-23T10:27:26;18.70;84.80
21169;DHT22;10742;51.816;8.662;2023-03-23T10:30:36;18.70;84.20
21169;DHT22;10742;51.816;8.662;2023-03-23T10:33:46;18.70;84.30
21169;DHT22;10742;51.816;8.662;2023-03-23T10:40:20;18.80;83.90
21169;DHT22;10742;51.816;8.662;2023-03-23T10:43:23;18.90;84.40
21169;DHT22;10742;51.816;8.662;2023-03-23T10:46:48;19.00;84.70
21169;DHT22;10742;51.816;8.662;2023-03-23T10:50:04;19.10;83.90
21169;DHT22;10742;51.816;8.662;2023-03-23T10:53:18;19.20;83.80
21169;DHT22;10742;51.816;8.662;2023-03-23T10:56:26;19.30;83.10
21169;DHT22;10742;51.816;8.662;2023-03-23T10:59:29;19.40;83.20
21169;DHT22;10742;51.816;8.662;2023-03-23T11:02:41;19.50;83.20
21169;DHT22;10742;51.816;8.662;2023-03-23T11:05:53;19.50;82.50
21169;DHT22;10742;51.816;8.662;2023-03-23T11:09:15;19.60;81.30
21169;DHT22;10742;51.816;8.662;2023-03-23T11:12:19;19.60;80.50
21169;DHT22;10742;51.816;8.662;2023-03-23T11:15:38;19.60;81.10
21169;DHT22;10742;51.816;8.662;2023-03-23T11:18:42;19.60;79.50
21169;DHT22;10742;51.816;8.662;2023-03-23T11:21:49;19.50;80.10
21169;DHT22;10742;51.816;8.662;2023-03-23T11:24:54;19.50;80.00
21169;DHT22;10742;51.816;8.662;2023-03-23T11:27:57;19.50;79.90
21169;DHT22;10742;51.816;8.662;2023-03-23T11:31:01;19.50;80.00
21169;DHT22;10742;51.816;8.662;2023-03-23T11:37:40;19.40;79.00
21169;DHT22;10742;51.816;8.662;2023-03-23T11:40:47;19.30;78.90
21169;DHT22;10742;51.816;8.662;2023-03-23T11:43:52;19.20;78.80
21169;DHT22;10742;51.816;8.662;2023-03-23T11:50:43;19.10;81.40
21169;DHT22;10742;51.816;8.662;2023-03-23T11:54:19;18.90;81.70
21169;DHT22;10742;51.816;8.662;2023-03-23T11:57:22;18.70;82.20
21169;DHT22;10742;51.816;8.662;2023-03-23T12:00:24;18.50;81.80
21169;DHT22;10742;51.816;8.662;2023-03-23T12:03:40;18.30;82.60
21169;DHT22;10742;51.816;8.662;2023-03-23T12:14:26;17.80;83.90
21169;DHT22;10742;51.816;8.662;2023-03-23T12:17:38;17.70;84.80
21169;DHT22;10742;51.816;8.662;2023-03-23T12:27:25;17.40;85.90
21169;DHT22;10742;51.816;8.662;2023-03-23T12:30:37;17.30;86.50
21169;DHT22;10742;51.816;8.662;2023-03-23T12:34:06;17.40;86.50
21169;DHT22;10742;51.816;8.662;2023-03-23T12:41:03;17.30;86.60
21169;DHT22;10742;51.816;8.662;2023-03-23T12:44:09;17.30;86.60
21169;DHT22;10742;51.816;8.662;2023-03-23T12:47:28;17.20;86.50
21169;DHT22;10742;51.816;8.662;2023-03-23T12:50:44;17.20;86.90
21169;DHT22;10742;51.816;8.662;2023-03-23T12:53:58;17.20;87.50
21169;DHT22;10742;51.816;8.662;2023-03-23T12:57:12;17.20;87.60
21169;DHT22;10742;51.816;8.662;2023-03-23T13:00:24;17.20;88.00
21169;DHT22;10742;51.816;8.662;2023-03-23T13:03:46;17.20;87.80
21169;DHT22;10742;51.816;8.662;2023-03-23T13:06:49;17.20;88.10
21169;DHT22;10742;51.816;8.662;2023-03-23T13:10:20;17.20;87.90
21169;DHT22;10742;51.816;8.662;2023-03-23T13:13:25;17.20;88.60
21169;DHT22;10742;51.816;8.662;2023-03-23T13:16:36;17.20;88.20
21169;DHT22;10742;51.816;8.662;2023-03-23T13:19:59;17.20;88.30
21169;DHT22;10742;51.816;8.662;2023-03-23T13:23:22;17.20;89.00
21169;DHT22;10742;51.816;8.662;2023-03-23T13:26:24;17.20;89.10
21169;DHT22;10742;51.816;8.662;2023-03-23T13:29:27;17.10;88.70
21169;DHT22;10742;51.816;8.662;2023-03-23T13:32:36;17.10;89.00
21169;DHT22;10742;51.816;8.662;2023-03-23T13:35:41;17.10;89.50
21169;DHT22;10742;51.816;8.662;2023-03-23T13:38:48;17.00;89.60
21169;DHT22;10742;51.816;8.662;2023-03-23T13:45:24;17.00;90.20
21169;DHT22;10742;51.816;8.662;2023-03-23T13:48:51;17.00;90.30
21169;DHT22;10742;51.816;8.662;2023-03-23T13:55:39;16.90;90.50
21169;DHT22;10742;51.816;8.662;2023-03-23T13:58:49;16.90;90.20
21169;DHT22;10742;51.816;8.662;2023-03-23T14:01:50;16.90;90.90
21169;DHT22;10742;51.816;8.662;2023-03-23T14:04:52;16.80;90.70
21169;DHT22;10742;51.816;8.662;2023-03-23T14:08:01;16.80;90.80
21169;DHT22;10742;51.816;8.662;2023-03-23T14:11:23;16.90;91.20
21169;DHT22;10742;51.816;8.662;2023-03-23T14:14:33;16.90;91.60
21169;DHT22;10742;51.816;8.662;2023-03-23T14:17:43;16.90;91.60
21169;DHT22;10742;51.816;8.662;2023-03-23T14:20:46;17.00;91.60
21169;DHT22;10742;51.816;8.662;2023-03-23T14:23:48;17.00;91.50
21169;DHT22;10742;51.816;8.662;2023-03-23T14:26:51;17.10;91.50
21169;DHT22;10742;51.816;8.662;2023-03-23T14:30:02;17.10;91.50
21169;DHT22;10742;51.816;8.662;2023-03-23T14:33:06;17.10;92.00
21169;DHT22;10742;51.816;8.662;2023-03-23T14:36:09;17.20;91.90
21169;DHT22;10742;51.816;8.662;2023-03-23T14:39:21;17.20;92.10
21169;DHT22;10742;51.816;8.662;2023-03-23T14:42:33;17.20;92.00
21169;DHT22;10742;51.816;8.662;2023-03-23T14:45:36;17.30;92.00
21169;DHT22;10742;51.816;8.662;2023-03-23T14:48:38;17.30;91.80
21169;DHT22;10742;51.816;8.662;2023-03-23T14:51:54;17.30;91.90
21169;DHT22;10742;51.816;8.662;2023-03-23T14:55:16;17.30;92.20
21169;DHT22;10742;51.816;8.662;2023-03-23T14:58:20;17.40;92.20
21169;DHT22;10742;51.816;8.662;2023-03-23T15:01:26;17.40;92.00
21169;DHT22;10742;51.816;8.662;2023-03-23T15:04:28;17.40;91.90
21169;DHT22;10742;51.816;8.662;2023-03-23T15:07:32;17.40;91.80
21169;DHT22;10742;51.816;8.662;2023-03-23T15:10:34;17.50;91.80
21169;DHT22;10742;51.816;8.662;2023-03-23T15:13:36;17.50;91.70
21169;DHT22;10742;51.816;8.662;2023-03-23T15:16:38;17.40;91.60
21169;DHT22;10742;51.816;8.662;2023-03-23T15:19:43;17.40;91.60
21169;DHT22;10742;51.816;8.662;2023-03-23T15:22:46;17.40;91.50
21169;DHT22;10742;51.816;8.662;2023-03-23T15:25:51;17.40;91.60
21169;DHT22;10742;51.816;8.662;2023-03-23T15:32:10;17.30;92.00
21169;DHT22;10742;51.816;8.662;2023-03-23T15:35:17;17.30;91.70
21169;DHT22;10742;51.816;8.662;2023-03-23T15:38:24;17.30;92.00
21169;DHT22;10742;51.816;8.662;2023-03-23T15:41:28;17.30;92.00
21169;DHT22;10742;51.816;8.662;2023-03-23T15:44:32;17.30;92.10
21169;DHT22;10742;51.816;8.662;2023-03-23T15:47:54;17.30;92.20
21169;DHT22;10742;51.816;8.662;2023-03-23T15:50:58;17.30;92.60
21169;DHT22;10742;51.816;8.662;2023-03-23T15:54:01;17.30;92.20
21169;DHT22;10742;51.816;8.662;2023-03-23T15:57:02;17.30;92.30
21169;DHT22;10742;51.816;8.662;2023-03-23T16:00:04;17.30;92.30
21169;DHT22;10742;51.816;8.662;2023-03-23T16:03:39;17.30;92.40
21169;DHT22;10742;51.816;8.662;2023-03-23T16:06:43;17.20;92.80
21169;DHT22;10742;51.816;8.662;2023-03-23T16:09:46;17.30;92.40
21169;DHT22;10742;51.816;8.662;2023-03-23T16:12:48;17.30;92.40
21169;DHT22;10742;51.816;8.662;2023-03-23T16:15:51;17.20;92.60
21169;DHT22;10742;51.816;8.662;2023-03-23T16:18:53;17.20;92.60
21169;DHT22;10742;51.816;8.662;2023-03-23T16:21:56;17.20;92.70
21169;DHT22;10742;51.816;8.662;2023-03-23T16:24:58;17.20;92.70
21169;DHT22;10742;51.816;8.662;2023-03-23T16:28:00;17.20;92.80
21169;DHT22;10742;51.816;8.662;2023-03-23T16:31:03;17.10;92.80
21169;DHT22;10742;51.816;8.662;2023-03-23T16:34:05;17.10;92.90
21169;DHT22;10742;51.816;8.662;2023-03-23T16:37:09;17.10;92.80
21169;DHT22;10742;51.816;8.662;2023-03-23T16:40:14;17.10;93.00
21169;DHT22;10742;51.816;8.662;2023-03-23T16:43:17;17.00;93.30
21169;DHT22;10742;51.816;8.662;2023-03-23T16:46:19;17.00;93.10
21169;DHT22;10742;51.816;8.662;2023-03-23T16:49:21;16.90;93.10
21169;DHT22;10742;51.816;8.662;2023-03-23T16:52:24;17.00;93.20
21169;DHT22;10742;51.816;8.662;2023-03-23T16:55:27;16.90;93.20
21169;DHT22;10742;51.816;8.662;2023-03-23T16:58:29;17.00;93.30
21169;DHT22;10742;51.816;8.662;2023-03-23T17:01:32;16.90;93.30
21169;DHT22;10742;51.816;8.662;2023-03-23T17:04:34;16.90;93.40
21169;DHT22;10742;51.816;8.662;2023-03-23T17:07:39;16.90;93.40
21169;DHT22;10742;51.816;8.662;2023-03-23T17:10:41;16.90;93.50
21169;DHT22;10742;51.816;8.662;2023-03-23T17:13:44;16.90;93.50
21169;DHT22;10742;51.816;8.662;2023-03-23T17:16:47;16.90;93.50
21169;DHT22;10742;51.816;8.662;2023-03-23T17:19:49;16.90;93.50
21169;DHT22;10742;51.816;8.662;2023-03-23T17:22:51;16.90;93.60
21169;DHT22;10742;51.816;8.662;2023-03-23T17:25:54;16.90;93.60
21169;DHT22;10742;51.816;8.662;2023-03-23T17:28:56;17.00;93.70
21169;DHT22;10742;51.816;8.662;2023-03-23T17:31:58;17.00;93.60
21169;DHT22;10742;51.816;8.662;2023-03-23T17:35:01;17.00;93.60
21169;DHT22;10742;51.816;8.662;2023-03-23T17:38:06;17.10;93.60
21169;DHT22;10742;51.816;8.662;2023-03-23T17:41:09;17.10;93.50
21169;DHT22;10742;51.816;8.662;2023-03-23T17:44:12;17.10;93.40
21169;DHT22;10742;51.816;8.662;2023-03-23T17:47:14;17.10;93.30
21169;DHT22;10742;51.816;8.662;2023-03-23T17:50:18;17.20;93.20
21169;DHT22;10742;51.816;8.662;2023-03-23T17:53:22;17.20;93.20
21169;DHT22;10742;51.816;8.662;2023-03-23T17:56:26;17.20;93.10
21169;DHT22;10742;51.816;8.662;2023-03-23T17:59:30;17.10;93.00
21169;DHT22;10742;51.816;8.662;2023-03-23T18:02:33;17.10;93.00
21169;DHT22;10742;51.816;8.662;2023-03-23T18:05:35;17.10;93.00
21169;DHT22;10742;51.816;8.662;2023-03-23T18:08:40;17.10;92.90
21169;DHT22;10742;51.816;8.662;2023-03-23T18:11:42;17.10;93.00
21169;DHT22;10742;51.816;8.662;2023-03-23T18:14:44;17.00;92.90
21169;DHT22;10742;51.816;8.662;2023-03-23T18:17:47;17.00;92.90
21169;DHT22;10742;51.816;8.662;2023-03-23T18:20:56;17.00;92.80
21169;DHT22;10742;51.816;8.662;2023-03-23T18:23:58;16.90;92.80
21169;DHT22;10742;51.816;8.662;2023-03-23T18:27:01;16.90;92.70
21169;DHT22;10742;51.816;8.662;2023-03-23T18:30:04;16.90;92.70
21169;DHT22;10742;51.816;8.662;2023-03-23T18:33:06;16.80;92.70
21169;DHT22;10742;51.816;8.662;2023-03-23T18:36:09;16.70;92.70
21169;DHT22;10742;51.816;8.662;2023-03-23T18:39:11;16.70;92.70
21169;DHT22;10742;51.816;8.662;2023-03-23T18:42:14;16.60;92.80
21169;DHT22;10742;51.816;8.662;2023-03-23T18:45:16;16.60;92.80
21169;DHT22;10742;51.816;8.662;2023-03-23T18:48:18;16.60;92.90
21169;DHT22;10742;51.816;8.662;2023-03-23T18:51:21;16.50;92.80
21169;DHT22;10742;51.816;8.662;2023-03-23T18:54:23;16.50;92.80
21169;DHT22;10742;51.816;8.662;2023-03-23T18:57:26;16.40;92.70
21169;DHT22;10742;51.816;8.662;2023-03-23T19:00:30;16.40;92.70
21169;DHT22;10742;51.816;8.662;2023-03-23T19:03:34;16.30;92.60
21169;DHT22;10742;51.816;8.662;2023-03-23T19:06:36;16.30;92.60
21169;DHT22;10742;51.816;8.662;2023-03-23T19:09:39;16.20;92.60
21169;DHT22;10742;51.816;8.662;2023-03-23T19:12:44;16.10;92.60
21169;DHT22;10742;51.816;8.662;2023-03-23T19:15:48;16.10;92.60
21169;DHT22;10742;51.816;8.662;2023-03-23T19:18:50;16.00;92.50
21169;DHT22;10742;51.816;8.662;2023-03-23T19:21:52;15.90;92.50
21169;DHT22;10742;51.816;8.662;2023-03-23T19:24:55;15.90;92.60
21169;DHT22;10742;51.816;8.662;2023-03-23T19:27:58;15.80;92.60
21169;DHT22;10742;51.816;8.662;2023-03-23T19:31:20;15.80;92.60
21169;DHT22;10742;51.816;8.662;2023-03-23T19:34:26;15.70;92.50
21169;DHT22;10742;51.816;8.662;2023-03-23T19:37:29;15.70;92.60
21169;DHT22;10742;51.816;8.662;2023-03-23T19:40:35;15.70;92.60
21169;DHT22;10742;51.816;8.662;2023-03-23T19:43:42;15.60;92.60
21169;DHT22;10742;51.816;8.662;2023-03-23T19:46:44;15.50;92.60
21169;DHT22;10742;51.816;8.662;2023-03-23T19:49:48;15.50;92.60
21169;DHT22;10742;51.816;8.662;2023-03-23T19:52:51;15.50;92.60
21169;DHT22;10742;51.816;8.662;2023-03-23T19:55:53;15.50;92.60
21169;DHT22;10742;51.816;8.662;2023-03-23T19:58:56;15.40;92.60
21169;DHT22;10742;51.816;8.662;2023-03-23T20:01:58;15.40;92.60
21169;DHT22;10742;51.816;8.662;2023-03-23T20:05:01;15.40;92.60
21169;DHT22;10742;51.816;8.662;2023-03-23T20:08:03;15.30;92.60
21169;DHT22;10742;51.816;8.662;2023-03-23T20:11:08;15.30;92.60
21169;DHT22;10742;51.816;8.662;2023-03-23T20:14:11;15.30;92.60
21169;DHT22;10742;51.816;8.662;2023-03-23T20:17:13;15.30;92.60
21169;DHT22;10742;51.816;8.662;2023-03-23T20:20:15;15.20;92.60
21169;DHT22;10742;51.816;8.662;2023-03-23T20:23:18;15.20;92.60
21169;DHT22;10742;51.816;8.662;2023-03-23T20:26:41;15.20;92.60
21169;DHT22;10742;51.816;8.662;2023-03-23T20:29:44;15.20;92.70
21169;DHT22;10742;51.816;8.662;2023-03-23T20:32:46;15.20;92.60
21169;DHT22;10742;51.816;8.662;2023-03-23T20:35:49;15.20;92.60
21169;DHT22;10742;51.816;8.662;2023-03-23T20:38:51;15.20;92.60
21169;DHT22;10742;51.816;8.662;2023-03-23T20:41:54;15.20;92.50
21169;DHT22;10742;51.816;8.662;2023-03-23T20:45:00;15.20;92.50